createdAt,value
2023-06-11T00:01:44.450Z,90.40
2023-06-11T00:04:26.392Z,90.70
2023-06-11T00:07:01.126Z,90.50
2023-06-11T00:09:32.185Z,90.30
2023-06-11T00:12:02.767Z,90.70
2023-06-11T00:14:33.168Z,91.00
2023-06-11T00:17:03.709Z,90.80
2023-06-11T00:19:34.117Z,90.70
2023-06-11T00:22:08.263Z,90.70
2023-06-11T00:24:39.005Z,90.50
2023-06-11T00:27:10.044Z,90.90
2023-06-11T00:29:40.569Z,90.70
2023-06-11T00:32:12.217Z,91.00
2023-06-11T00:34:42.757Z,91.10
2023-06-11T00:37:16.080Z,91.20
2023-06-11T00:39:46.529Z,91.00
2023-06-11T00:42:17.010Z,90.90
2023-06-11T00:44:48.400Z,91.10
2023-06-11T00:47:19.985Z,90.90
2023-06-11T00:49:50.880Z,90.80
2023-06-11T00:52:27.125Z,91.00
2023-06-11T00:55:13.637Z,90.70
2023-06-11T00:57:47.620Z,90.90
2023-06-11T01:00:19.139Z,91.10
2023-06-11T01:02:58.969Z,91.10
2023-06-11T01:05:33.332Z,90.90
2023-06-11T01:08:08.998Z,91.10
2023-06-11T01:10:39.766Z,91.30
2023-06-11T01:13:10.330Z,91.10
2023-06-11T01:15:40.919Z,91.40
2023-06-11T01:18:20.862Z,91.40
2023-06-11T01:21:06.341Z,91.70
2023-06-11T01:23:45.225Z,91.80
2023-06-11T01:26:36.438Z,92.00
2023-06-11T01:29:13.225Z,91.60
2023-06-11T01:31:45.445Z,91.80
2023-06-11T01:34:17.891Z,92.10
2023-06-11T01:36:48.586Z,91.90
2023-06-11T01:39:19.055Z,91.70
2023-06-11T01:42:01.500Z,91.90
2023-06-11T01:44:35.581Z,91.90
2023-06-11T01:47:06.397Z,92.30
2023-06-11T01:49:37.090Z,92.60
2023-06-11T01:52:08.458Z,92.60
2023-06-11T01:54:38.966Z,92.70
2023-06-11T01:57:09.795Z,92.90
2023-06-11T01:59:43.028Z,92.50
2023-06-11T02:02:13.977Z,92.80
2023-06-11T02:04:45.657Z,93.00
2023-06-11T02:07:16.310Z,93.00
2023-06-11T02:09:46.965Z,92.90
2023-06-11T02:12:17.473Z,92.90
2023-06-11T02:14:50.587Z,92.90
2023-06-11T02:17:21.385Z,92.50
2023-06-11T02:19:53.403Z,92.40
2023-06-11T02:22:23.921Z,92.80
2023-06-11T02:24:54.394Z,93.00
2023-06-11T02:27:25.035Z,92.80
2023-06-11T02:29:58.728Z,93.20
2023-06-11T02:32:29.264Z,93.20
2023-06-11T02:35:00.263Z,93.50
2023-06-11T02:37:31.097Z,93.90
2023-06-11T02:40:01.651Z,93.90
2023-06-11T02:42:32.088Z,93.90
2023-06-11T02:45:05.409Z,94.10
2023-06-11T02:47:35.876Z,94.20
2023-06-11T02:50:06.501Z,94.50
2023-06-11T02:52:36.977Z,94.60
2023-06-11T02:55:08.562Z,94.50
2023-06-11T02:57:39.388Z,94.60
2023-06-11T03:00:14.285Z,94.60
2023-06-11T03:02:44.996Z,94.80
2023-06-11T03:05:18.242Z,94.80
2023-06-11T03:07:48.837Z,94.80
2023-06-11T03:10:19.609Z,95.00
2023-06-11T03:12:50.099Z,95.00
2023-06-11T03:15:23.385Z,95.10
2023-06-11T03:17:53.914Z,95.30
2023-06-11T03:20:25.510Z,95.30
2023-06-11T03:22:56.685Z,95.40
2023-06-11T03:25:27.363Z,95.40
2023-06-11T03:27:57.856Z,95.60
2023-06-11T03:30:31.360Z,95.80
2023-06-11T03:33:03.061Z,95.80
2023-06-11T03:35:34.425Z,95.90
2023-06-11T03:38:13.602Z,96.00
2023-06-11T03:40:46.838Z,96.10
2023-06-11T03:43:17.424Z,96.20
2023-06-11T03:45:52.307Z,96.50
2023-06-11T03:48:22.822Z,96.60
2023-06-11T03:50:53.626Z,96.80
2023-06-11T03:53:24.297Z,96.90
2023-06-11T03:55:55.253Z,96.90
2023-06-11T03:58:25.891Z,97.10
2023-06-11T04:00:59.289Z,97.10
2023-06-11T04:03:30.917Z,97.30
2023-06-11T04:06:01.565Z,97.70
2023-06-11T04:08:32.774Z,97.70
2023-06-11T04:11:03.488Z,97.80
2023-06-11T04:13:34.079Z,98.10
2023-06-11T04:16:07.630Z,98.40
2023-06-11T04:18:38.630Z,98.40
2023-06-11T04:21:09.146Z,98.80
2023-06-11T04:23:40.433Z,99.10
2023-06-11T04:26:12.083Z,99.30
2023-06-11T04:28:49.976Z,99.50
2023-06-11T04:31:28.120Z,99.80
2023-06-11T04:34:04.306Z,99.90
2023-06-11T04:36:39.743Z,99.90
2023-06-11T04:39:11.725Z,99.90
2023-06-11T04:41:45.801Z,99.90
2023-06-11T04:44:17.782Z,99.90
2023-06-11T04:46:59.025Z,99.90
2023-06-11T04:49:33.853Z,99.90
2023-06-11T04:52:04.477Z,99.90
2023-06-11T04:54:35.286Z,99.90
2023-06-11T04:57:08.700Z,99.90
2023-06-11T04:59:39.225Z,99.90
2023-06-11T05:02:12.438Z,99.90
2023-06-11T05:04:43.200Z,99.90
2023-06-11T05:07:14.401Z,99.90
2023-06-11T05:09:46.313Z,99.90
2023-06-11T05:12:17.536Z,99.90
2023-06-11T05:14:51.263Z,99.90
2023-06-11T05:17:24.589Z,99.90
2023-06-11T05:19:55.418Z,99.90
2023-06-11T05:22:26.410Z,99.90
2023-06-11T05:24:57.716Z,99.90
2023-06-11T05:27:30.858Z,99.90
2023-06-11T05:30:05.307Z,99.90
2023-06-11T05:32:39.084Z,99.90
2023-06-11T05:35:10.768Z,99.90
2023-06-11T05:37:42.241Z,99.90
2023-06-11T05:40:14.509Z,99.90
2023-06-11T05:42:45.266Z,99.90
2023-06-11T05:45:16.487Z,99.90
2023-06-11T05:47:49.864Z,99.90
2023-06-11T05:50:21.119Z,99.90
2023-06-11T05:52:52.942Z,99.90
2023-06-11T05:55:23.601Z,99.90
2023-06-11T05:57:54.183Z,99.90
2023-06-11T06:00:25.419Z,99.90
2023-06-11T06:03:02.541Z,99.90
2023-06-11T06:05:35.360Z,99.90
2023-06-11T06:08:06.019Z,99.90
2023-06-11T06:10:37.208Z,99.90
2023-06-11T06:13:08.184Z,99.90
2023-06-11T06:15:39.573Z,99.90
2023-06-11T06:18:12.918Z,99.90
2023-06-11T06:20:47.766Z,99.90
2023-06-11T06:23:18.679Z,99.90
2023-06-11T06:25:57.562Z,99.90
2023-06-11T06:28:31.953Z,99.90
2023-06-11T06:31:04.022Z,99.90
2023-06-11T06:33:39.327Z,99.90
2023-06-11T06:36:12.435Z,99.90
2023-06-11T06:38:46.168Z,99.90
2023-06-11T06:41:17.206Z,99.90
2023-06-11T06:43:47.778Z,99.90
2023-06-11T06:46:21.845Z,99.90
2023-06-11T06:48:55.351Z,99.90
2023-06-11T06:51:26.038Z,99.90
2023-06-11T06:53:57.175Z,99.90
2023-06-11T06:56:28.961Z,99.90
2023-06-11T06:59:00.134Z,99.90
2023-06-11T07:01:31.397Z,99.90
2023-06-11T07:04:05.575Z,99.90
2023-06-11T07:06:37.900Z,99.90
2023-06-11T07:09:10.001Z,99.90
2023-06-11T07:11:40.940Z,99.90
2023-06-11T07:14:12.722Z,99.90
2023-06-11T07:16:43.253Z,99.90
2023-06-11T07:19:16.531Z,99.90
2023-06-11T07:21:47.011Z,99.90
2023-06-11T07:24:18.081Z,99.90
2023-06-11T07:26:48.604Z,99.90
2023-06-11T07:29:19.866Z,99.90
2023-06-11T07:31:50.576Z,99.90
2023-06-11T07:34:23.808Z,99.90
2023-06-11T07:36:55.092Z,99.90
2023-06-11T07:39:25.818Z,99.90
2023-06-11T07:41:56.483Z,99.90
2023-06-11T07:44:27.224Z,99.90
2023-06-11T07:46:57.852Z,99.90
2023-06-11T07:49:31.190Z,99.90
2023-06-11T07:52:01.884Z,99.90
2023-06-11T07:54:33.190Z,99.90
2023-06-11T07:57:03.696Z,99.90
2023-06-11T07:59:38.396Z,99.90
2023-06-11T08:02:09.972Z,99.90
2023-06-11T08:04:43.296Z,99.90
2023-06-11T08:07:14.269Z,99.90
2023-06-11T08:09:44.861Z,99.90
2023-06-11T08:12:16.272Z,99.90
2023-06-11T08:14:46.838Z,99.90
2023-06-11T08:17:17.911Z,99.90
2023-06-11T08:19:51.463Z,99.90
2023-06-11T08:22:21.988Z,99.90
2023-06-11T08:24:52.518Z,99.90
2023-06-11T08:27:22.897Z,99.90
2023-06-11T08:29:53.470Z,99.90
2023-06-11T08:32:24.047Z,99.90
2023-06-11T08:34:57.467Z,99.90
2023-06-11T08:37:27.995Z,99.90
2023-06-11T08:39:58.509Z,99.90
2023-06-11T08:42:29.082Z,99.90
2023-06-11T08:45:00.040Z,99.90
2023-06-11T08:47:32.342Z,99.90
2023-06-11T08:50:07.491Z,99.90
2023-06-11T08:52:39.124Z,99.90
2023-06-11T08:55:10.972Z,99.90
2023-06-11T08:57:42.088Z,99.90
2023-06-11T09:00:14.291Z,99.90
2023-06-11T09:02:44.972Z,99.90
2023-06-11T09:05:18.268Z,99.90
2023-06-11T09:07:52.858Z,99.90
2023-06-11T09:10:24.590Z,99.90
2023-06-11T09:12:57.727Z,99.90
2023-06-11T09:15:29.336Z,99.90
2023-06-11T09:17:59.871Z,99.90
2023-06-11T09:20:35.883Z,99.90
2023-06-11T09:23:06.450Z,99.90
2023-06-11T09:25:37.022Z,99.90
2023-06-11T09:28:11.410Z,99.90
2023-06-11T09:30:41.967Z,99.90
2023-06-11T09:33:19.320Z,99.90
2023-06-11T09:35:52.815Z,99.90
2023-06-11T09:38:25.252Z,99.90
2023-06-11T09:40:57.999Z,99.90
2023-06-11T09:43:29.310Z,99.90
2023-06-11T09:45:59.947Z,99.90
2023-06-11T09:48:30.488Z,99.90
2023-06-11T09:51:04.923Z,99.90
2023-06-11T09:53:36.396Z,99.90
2023-06-11T09:56:11.448Z,99.90
2023-06-11T09:58:43.661Z,99.90
2023-06-11T10:01:16.686Z,99.90
2023-06-11T10:03:47.394Z,99.30
2023-06-11T10:06:24.219Z,99.90
2023-06-11T10:08:59.780Z,99.60
2023-06-11T10:11:40.065Z,99.90
2023-06-11T10:14:17.305Z,99.90
2023-06-11T10:16:53.084Z,99.60
2023-06-11T10:19:27.480Z,99.80
2023-06-11T10:22:05.427Z,98.20
2023-06-11T10:24:35.979Z,98.90
2023-06-11T10:27:12.186Z,98.40
2023-06-11T10:29:43.855Z,97.90
2023-06-11T10:32:23.789Z,97.30
2023-06-11T10:34:59.127Z,97.70
2023-06-11T10:37:38.263Z,98.40
2023-06-11T10:40:10.938Z,97.70
2023-06-11T10:42:43.266Z,97.80
2023-06-11T10:45:15.789Z,98.10
2023-06-11T10:47:48.310Z,98.30
2023-06-11T10:50:19.846Z,97.50
2023-06-11T10:52:54.246Z,98.00
2023-06-11T10:55:27.585Z,96.20
2023-06-11T10:57:58.440Z,95.40
2023-06-11T11:00:34.248Z,96.10
2023-06-11T11:03:07.262Z,96.10
2023-06-11T11:05:37.786Z,94.80
2023-06-11T11:08:11.106Z,95.30
2023-06-11T11:10:41.569Z,95.60
2023-06-11T11:13:12.106Z,95.40
2023-06-11T11:15:45.670Z,95.40
2023-06-11T11:18:16.280Z,94.80
2023-06-11T11:20:48.624Z,94.80
2023-06-11T11:23:26.124Z,94.40
2023-06-11T11:25:57.156Z,93.90
2023-06-11T11:28:27.934Z,94.00
2023-06-11T11:30:58.996Z,94.20
2023-06-11T11:33:29.742Z,93.80
2023-06-11T11:36:02.941Z,94.90
2023-06-11T11:38:38.548Z,94.20
2023-06-11T11:41:12.035Z,94.70
2023-06-11T11:43:44.421Z,93.50
2023-06-11T11:46:19.773Z,93.40
2023-06-11T11:48:50.753Z,93.60
2023-06-11T11:51:21.790Z,93.60
2023-06-11T11:53:56.392Z,93.50
2023-06-11T11:56:28.432Z,93.60
2023-06-11T11:58:58.985Z,92.00
2023-06-11T12:01:38.148Z,90.80
2023-06-11T12:04:12.358Z,90.30
2023-06-11T12:06:43.031Z,91.80
2023-06-11T12:09:17.031Z,87.60
2023-06-11T12:12:04.028Z,89.80
2023-06-11T12:14:35.771Z,90.40
2023-06-11T12:17:09.142Z,90.50
2023-06-11T12:19:39.864Z,91.40
2023-06-11T12:22:12.668Z,90.10
2023-06-11T12:24:45.793Z,90.60
2023-06-11T12:27:16.319Z,90.60
2023-06-11T12:29:52.276Z,90.90
2023-06-11T12:32:24.516Z,91.00
2023-06-11T12:34:55.506Z,90.40
2023-06-11T12:37:26.476Z,90.80
2023-06-11T12:39:59.606Z,90.60
2023-06-11T12:42:31.267Z,89.20
2023-06-11T12:45:01.833Z,87.70
2023-06-11T12:47:32.361Z,90.00
2023-06-11T12:50:03.025Z,90.20
2023-06-11T12:52:33.502Z,88.00
2023-06-11T12:55:06.889Z,89.40
2023-06-11T12:57:37.598Z,89.60
2023-06-11T13:00:10.544Z,89.10
2023-06-11T13:02:42.782Z,87.50
2023-06-11T13:05:13.757Z,89.00
2023-06-11T13:07:46.070Z,90.20
2023-06-11T13:10:20.002Z,88.90
2023-06-11T13:12:50.588Z,90.10
2023-06-11T13:15:21.246Z,89.20
2023-06-11T13:17:51.744Z,90.20
2023-06-11T13:20:23.405Z,90.10
2023-06-11T13:22:57.192Z,89.60
2023-06-11T13:25:30.367Z,88.80
2023-06-11T13:28:00.911Z,89.80
2023-06-11T13:30:31.552Z,90.40
2023-06-11T13:33:02.126Z,89.30
2023-06-11T13:35:32.708Z,89.40
2023-06-11T13:38:03.111Z,88.40
2023-06-11T13:40:36.240Z,89.40
2023-06-11T13:43:06.702Z,90.70
2023-06-11T13:45:37.182Z,90.00
2023-06-11T13:48:15.438Z,90.70
2023-06-11T13:50:48.531Z,88.50
2023-06-11T13:53:19.995Z,89.40
2023-06-11T13:55:53.888Z,86.80
2023-06-11T13:58:24.504Z,88.20
2023-06-11T14:00:55.446Z,86.40
2023-06-11T14:03:26.213Z,87.00
2023-06-11T14:05:56.877Z,87.10
2023-06-11T14:08:27.350Z,87.20
2023-06-11T14:11:00.521Z,86.90
2023-06-11T14:13:30.942Z,87.70
2023-06-11T14:16:01.567Z,85.20
2023-06-11T14:18:32.099Z,86.30
2023-06-11T14:21:02.620Z,87.30
2023-06-11T14:23:33.052Z,87.30
2023-06-11T14:26:06.279Z,82.70
2023-06-11T14:28:36.799Z,83.00
2023-06-11T14:31:08.192Z,81.80
2023-06-11T14:33:38.866Z,81.70
2023-06-11T14:36:09.979Z,79.30
2023-06-11T14:38:40.443Z,81.00
2023-06-11T14:41:15.643Z,81.50
2023-06-11T14:43:46.932Z,81.00
2023-06-11T14:46:17.462Z,81.30
2023-06-11T14:48:47.926Z,78.80
2023-06-11T14:51:18.501Z,79.40
2023-06-11T14:53:48.982Z,78.70
2023-06-11T14:56:22.424Z,76.80
2023-06-11T14:58:53.057Z,79.50
2023-06-11T15:01:23.624Z,80.70
2023-06-11T15:03:54.167Z,80.30
2023-06-11T15:06:24.714Z,78.90
2023-06-11T15:08:55.197Z,78.00
2023-06-11T15:11:29.391Z,79.50
2023-06-11T15:13:59.975Z,78.90
2023-06-11T15:16:30.681Z,77.20
2023-06-11T15:19:01.181Z,78.00
2023-06-11T15:21:31.793Z,77.60
2023-06-11T15:24:02.238Z,75.20
2023-06-11T15:26:35.436Z,73.00
2023-06-11T15:29:05.994Z,77.50
2023-06-11T15:31:36.589Z,77.20
2023-06-11T15:34:07.142Z,75.00
2023-06-11T15:36:37.629Z,73.80
2023-06-11T15:39:08.081Z,73.10
2023-06-11T15:41:41.275Z,74.30
2023-06-11T15:44:11.712Z,74.50
2023-06-11T15:46:42.239Z,74.80
2023-06-11T15:49:12.799Z,75.20
2023-06-11T15:51:43.326Z,75.50
2023-06-11T15:54:14.281Z,75.40
2023-06-11T15:56:48.110Z,74.70
2023-06-11T15:59:18.742Z,74.50
2023-06-11T16:01:49.300Z,74.50
2023-06-11T16:04:24.403Z,75.20
2023-06-11T16:06:55.064Z,75.80
2023-06-11T16:09:26.019Z,76.30
2023-06-11T16:11:59.406Z,76.30
2023-06-11T16:14:29.891Z,76.80
2023-06-11T16:17:01.600Z,74.60
2023-06-11T16:19:32.100Z,75.80
2023-06-11T16:22:02.739Z,74.30
2023-06-11T16:24:33.174Z,75.00
2023-06-11T16:27:06.856Z,74.70
2023-06-11T16:29:37.445Z,75.70
2023-06-11T16:32:11.298Z,74.40
2023-06-11T16:34:41.860Z,75.10
2023-06-11T16:37:12.372Z,74.00
2023-06-11T16:39:42.877Z,72.30
2023-06-11T16:42:16.094Z,73.90
2023-06-11T16:44:46.972Z,72.70
2023-06-11T16:47:17.996Z,73.00
2023-06-11T16:49:48.565Z,72.50
2023-06-11T16:52:19.599Z,73.10
2023-06-11T16:54:50.376Z,74.40
2023-06-11T16:57:23.556Z,73.50
2023-06-11T16:59:54.086Z,74.00
2023-06-11T17:02:24.676Z,74.00
2023-06-11T17:04:55.122Z,73.10
2023-06-11T17:07:25.714Z,74.70
2023-06-11T17:09:56.307Z,72.80
2023-06-11T17:12:29.605Z,73.40
2023-06-11T17:15:00.062Z,73.10
2023-06-11T17:17:30.700Z,71.90
2023-06-11T17:20:01.100Z,71.20
2023-06-11T17:22:31.862Z,72.00
2023-06-11T17:25:02.278Z,69.90
2023-06-11T17:27:35.628Z,70.40
2023-06-11T17:30:06.296Z,72.20
2023-06-11T17:32:37.161Z,71.00
2023-06-11T17:35:08.565Z,71.20
2023-06-11T17:37:39.179Z,70.30
2023-06-11T17:40:14.597Z,69.50
2023-06-11T17:42:52.114Z,70.00
2023-06-11T17:45:22.610Z,71.90
2023-06-11T17:47:53.255Z,69.50
2023-06-11T17:50:24.040Z,70.70
2023-06-11T17:52:54.898Z,68.80
2023-06-11T17:55:27.356Z,69.30
2023-06-11T17:58:00.465Z,67.30
2023-06-11T18:00:31.127Z,69.10
2023-06-11T18:03:02.740Z,68.60
2023-06-11T18:05:34.427Z,68.20
2023-06-11T18:08:05.018Z,66.70
2023-06-11T18:10:35.561Z,67.20
2023-06-11T18:13:08.704Z,67.60
2023-06-11T18:15:41.884Z,67.10
2023-06-11T18:18:13.019Z,65.90
2023-06-11T18:20:43.540Z,66.20
2023-06-11T18:23:14.045Z,67.20
2023-06-11T18:25:44.617Z,66.00
2023-06-11T18:28:18.602Z,67.10
2023-06-11T18:30:49.904Z,66.60
2023-06-11T18:33:20.567Z,66.80
2023-06-11T18:35:51.104Z,66.10
2023-06-11T18:38:21.645Z,65.60
2023-06-11T18:40:52.082Z,67.00
2023-06-11T18:43:25.289Z,66.30
2023-06-11T18:45:56.162Z,67.30
2023-06-11T18:48:27.018Z,66.20
2023-06-11T18:50:57.429Z,66.90
2023-06-11T18:53:28.001Z,66.70
2023-06-11T18:55:58.422Z,67.90
2023-06-11T18:58:32.369Z,67.30
2023-06-11T19:01:02.972Z,66.90
2023-06-11T19:03:36.220Z,67.50
2023-06-11T19:06:09.392Z,68.10
2023-06-11T19:08:42.856Z,68.60
2023-06-11T19:11:13.503Z,67.90
2023-06-11T19:13:48.864Z,68.50
2023-06-11T19:16:19.431Z,68.40
2023-06-11T19:18:50.010Z,69.40
2023-06-11T19:21:24.330Z,67.70
2023-06-11T19:23:55.004Z,68.30
2023-06-11T19:26:25.546Z,70.50
2023-06-11T19:28:58.634Z,68.90
2023-06-11T19:31:29.849Z,68.90
2023-06-11T19:34:01.107Z,68.30
2023-06-11T19:36:31.625Z,69.30
2023-06-11T19:39:02.071Z,70.10
2023-06-11T19:41:32.505Z,71.50
2023-06-11T19:44:05.609Z,72.10
2023-06-11T19:46:36.876Z,71.80
2023-06-11T19:49:08.225Z,71.70
2023-06-11T19:51:40.058Z,70.60
2023-06-11T19:54:11.646Z,72.60
2023-06-11T19:56:42.226Z,72.20
2023-06-11T19:59:20.396Z,73.60
2023-06-11T20:01:51.109Z,73.50
2023-06-11T20:04:23.266Z,73.90
2023-06-11T20:06:53.877Z,74.80
2023-06-11T20:09:24.733Z,74.90
2023-06-11T20:12:04.323Z,76.00
2023-06-11T20:14:37.950Z,75.80
2023-06-11T20:17:08.708Z,77.20
2023-06-11T20:19:39.772Z,76.40
2023-06-11T20:22:10.593Z,76.80
2023-06-11T20:24:41.329Z,77.50
2023-06-11T20:27:12.110Z,78.20
2023-06-11T20:29:45.369Z,77.80
2023-06-11T20:32:18.465Z,77.00
2023-06-11T20:34:49.019Z,76.80
2023-06-11T20:37:19.583Z,76.50
2023-06-11T20:39:50.221Z,77.30
2023-06-11T20:42:21.586Z,77.00
2023-06-11T20:44:54.727Z,77.70
2023-06-11T20:47:26.077Z,78.10
2023-06-11T20:49:56.824Z,76.80
2023-06-11T20:52:28.066Z,78.60
2023-06-11T20:54:58.770Z,78.60
2023-06-11T20:57:33.161Z,77.90
2023-06-11T21:00:06.592Z,79.00
2023-06-11T21:02:37.090Z,78.70
2023-06-11T21:05:08.133Z,77.50
2023-06-11T21:07:39.112Z,78.00
2023-06-11T21:10:11.543Z,77.60
2023-06-11T21:12:46.656Z,78.50
2023-06-11T21:15:20.256Z,77.20
2023-06-11T21:17:50.884Z,77.60
2023-06-11T21:20:21.576Z,79.30
2023-06-11T21:22:52.035Z,79.10
2023-06-11T21:25:22.639Z,79.80
2023-06-11T21:27:53.026Z,80.20
2023-06-11T21:30:26.238Z,78.30
2023-06-11T21:32:57.114Z,77.90
2023-06-11T21:35:27.714Z,80.60
2023-06-11T21:38:00.346Z,78.70
2023-06-11T21:40:30.932Z,79.60
2023-06-11T21:43:01.717Z,79.90
2023-06-11T21:45:35.441Z,80.70
2023-06-11T21:48:05.995Z,81.20
2023-06-11T21:50:36.895Z,81.80
2023-06-11T21:53:08.662Z,81.70
2023-06-11T21:55:39.134Z,81.80
2023-06-11T21:58:09.626Z,81.90
2023-06-11T22:00:42.761Z,82.10
2023-06-11T22:03:15.687Z,82.30
2023-06-11T22:05:46.346Z,81.40
2023-06-11T22:08:17.432Z,81.90
2023-06-11T22:10:48.688Z,82.10
2023-06-11T22:13:19.232Z,83.30
2023-06-11T22:15:52.415Z,83.60
2023-06-11T22:18:23.009Z,83.10
2023-06-11T22:20:54.142Z,83.10
2023-06-11T22:23:33.738Z,83.30
2023-06-11T22:26:12.721Z,83.20
2023-06-11T22:28:43.235Z,84.40
2023-06-11T22:31:16.521Z,84.50
2023-06-11T22:33:47.655Z,84.20
2023-06-11T22:36:18.290Z,83.80
2023-06-11T22:38:48.760Z,83.50
2023-06-11T22:41:19.228Z,84.30
2023-06-11T22:43:49.722Z,84.20
2023-06-11T22:46:22.845Z,84.10
2023-06-11T22:48:54.382Z,83.90
2023-06-11T22:51:27.258Z,83.50
2023-06-11T22:53:57.826Z,84.70
2023-06-11T22:56:28.418Z,84.80
2023-06-11T22:58:58.866Z,85.00
2023-06-11T23:01:31.925Z,86.00
2023-06-11T23:04:02.466Z,85.60
2023-06-11T23:06:33.439Z,85.70
2023-06-11T23:09:04.249Z,86.20
2023-06-11T23:11:34.979Z,86.20
2023-06-11T23:14:05.611Z,86.80
2023-06-11T23:16:38.968Z,86.70
2023-06-11T23:19:09.456Z,87.30
2023-06-11T23:21:41.361Z,87.60
2023-06-11T23:24:12.977Z,87.70
2023-06-11T23:26:45.419Z,88.00
2023-06-11T23:29:16.553Z,87.30
2023-06-11T23:31:49.810Z,87.50
2023-06-11T23:34:20.401Z,88.00
2023-06-11T23:36:50.966Z,87.20
2023-06-11T23:39:21.573Z,86.80
2023-06-11T23:41:52.074Z,87.20
2023-06-11T23:44:23.533Z,87.60
2023-06-11T23:46:56.683Z,87.50
2023-06-11T23:49:27.188Z,87.70
2023-06-11T23:51:57.724Z,88.50
2023-06-11T23:54:28.141Z,88.20
2023-06-11T23:56:58.769Z,88.10
2023-06-11T23:59:29.300Z,88.40
